sensor_id;sensor_type;location;lat;lon;timestamp;P1;durP1;ratioP1;P2;durP2;ratioP2
69026;SDS011;56080;47.594;19.116;2023-06-24T00:01:57;6.50;;;4.10;;
69026;SDS011;56080;47.594;19.116;2023-06-24T00:11:57;7.00;;;3.80;;
69026;SDS011;56080;47.594;19.116;2023-06-24T00:21:58;6.70;;;3.80;;
69026;SDS011;56080;47.594;19.116;2023-06-24T00:32:00;7.70;;;4.20;;
69026;SDS011;56080;47.594;19.116;2023-06-24T00:42:01;6.70;;;3.50;;
69026;SDS011;56080;47.594;19.116;2023-06-24T00:52:03;6.20;;;3.60;;
69026;SDS011;56080;47.594;19.116;2023-06-24T01:02:04;7.30;;;3.80;;
69026;SDS011;56080;47.594;19.116;2023-06-24T01:12:07;6.60;;;3.10;;
69026;SDS011;56080;47.594;19.116;2023-06-24T01:42:16;5.80;;;3.00;;
69026;SDS011;56080;47.594;19.116;2023-06-24T01:52:14;6.20;;;2.90;;
69026;SDS011;56080;47.594;19.116;2023-06-24T02:02:15;6.30;;;3.10;;
69026;SDS011;56080;47.594;19.116;2023-06-24T02:12:17;6.00;;;2.90;;
69026;SDS011;56080;47.594;19.116;2023-06-24T02:22:20;6.50;;;3.00;;
69026;SDS011;56080;47.594;19.116;2023-06-24T02:32:20;6.10;;;2.90;;
69026;SDS011;56080;47.594;19.116;2023-06-24T02:42:21;6.20;;;2.60;;
69026;SDS011;56080;47.594;19.116;2023-06-24T02:52:23;6.00;;;2.90;;
69026;SDS011;56080;47.594;19.116;2023-06-24T03:02:24;5.50;;;2.30;;
69026;SDS011;56080;47.594;19.116;2023-06-24T03:12:25;5.90;;;2.70;;
69026;SDS011;56080;47.594;19.116;2023-06-24T03:22:28;6.50;;;2.70;;
69026;SDS011;56080;47.594;19.116;2023-06-24T03:32:28;6.20;;;2.20;;
69026;SDS011;56080;47.594;19.116;2023-06-24T03:42:30;5.80;;;2.30;;
69026;SDS011;56080;47.594;19.116;2023-06-24T03:52:31;5.30;;;2.20;;
69026;SDS011;56080;47.594;19.116;2023-06-24T04:02:33;5.50;;;2.30;;
69026;SDS011;56080;47.594;19.116;2023-06-24T04:12:35;6.00;;;2.60;;
69026;SDS011;56080;47.594;19.116;2023-06-24T04:22:37;5.60;;;2.30;;
69026;SDS011;56080;47.594;19.116;2023-06-24T04:32:39;5.30;;;2.30;;
69026;SDS011;56080;47.594;19.116;2023-06-24T04:42:40;5.40;;;2.30;;
69026;SDS011;56080;47.594;19.116;2023-06-24T04:52:42;5.10;;;2.10;;
69026;SDS011;56080;47.594;19.116;2023-06-24T05:02:45;6.50;;;3.50;;
69026;SDS011;56080;47.594;19.116;2023-06-24T05:12:47;7.50;;;3.00;;
69026;SDS011;56080;47.594;19.116;2023-06-24T05:22:49;4.50;;;1.80;;
69026;SDS011;56080;47.594;19.116;2023-06-24T05:32:52;4.70;;;1.90;;
69026;SDS011;56080;47.594;19.116;2023-06-24T05:42:54;5.40;;;1.70;;
69026;SDS011;56080;47.594;19.116;2023-06-24T05:52:57;6.00;;;1.90;;
69026;SDS011;56080;47.594;19.116;2023-06-24T06:03:00;5.70;;;2.10;;
69026;SDS011;56080;47.594;19.116;2023-06-24T06:13:03;3.90;;;1.60;;
69026;SDS011;56080;47.594;19.116;2023-06-24T06:23:05;5.40;;;2.20;;
69026;SDS011;56080;47.594;19.116;2023-06-24T06:33:07;5.10;;;1.70;;
69026;SDS011;56080;47.594;19.116;2023-06-24T06:43:10;5.40;;;1.80;;
69026;SDS011;56080;47.594;19.116;2023-06-24T06:53:12;4.60;;;1.90;;
69026;SDS011;56080;47.594;19.116;2023-06-24T07:03:15;5.30;;;2.20;;
69026;SDS011;56080;47.594;19.116;2023-06-24T07:13:18;6.70;;;2.20;;
69026;SDS011;56080;47.594;19.116;2023-06-24T07:23:21;5.20;;;1.80;;
69026;SDS011;56080;47.594;19.116;2023-06-24T07:33:23;6.00;;;1.70;;
69026;SDS011;56080;47.594;19.116;2023-06-24T07:43:26;4.10;;;1.60;;
69026;SDS011;56080;47.594;19.116;2023-06-24T07:53:29;5.20;;;2.50;;
69026;SDS011;56080;47.594;19.116;2023-06-24T08:13:34;4.50;;;1.90;;
69026;SDS011;56080;47.594;19.116;2023-06-24T08:23:37;5.20;;;1.90;;
69026;SDS011;56080;47.594;19.116;2023-06-24T08:33:43;5.40;;;2.00;;
69026;SDS011;56080;47.594;19.116;2023-06-24T08:43:41;4.60;;;1.90;;
69026;SDS011;56080;47.594;19.116;2023-06-24T08:53:44;4.70;;;2.00;;
69026;SDS011;56080;47.594;19.116;2023-06-24T09:03:46;5.70;;;2.50;;
69026;SDS011;56080;47.594;19.116;2023-06-24T09:13:53;4.30;;;1.90;;
69026;SDS011;56080;47.594;19.116;2023-06-24T09:23:52;4.90;;;2.70;;
69026;SDS011;56080;47.594;19.116;2023-06-24T09:33:56;4.60;;;2.20;;
69026;SDS011;56080;47.594;19.116;2023-06-24T09:43:57;5.40;;;2.90;;
69026;SDS011;56080;47.594;19.116;2023-06-24T09:53:57;5.70;;;2.80;;
69026;SDS011;56080;47.594;19.116;2023-06-24T10:04:00;4.60;;;2.30;;
69026;SDS011;56080;47.594;19.116;2023-06-24T10:14:02;6.20;;;2.80;;
69026;SDS011;56080;47.594;19.116;2023-06-24T10:24:04;4.90;;;2.60;;
69026;SDS011;56080;47.594;19.116;2023-06-24T10:44:16;4.50;;;2.40;;
69026;SDS011;56080;47.594;19.116;2023-06-24T10:54:11;5.50;;;3.00;;
69026;SDS011;56080;47.594;19.116;2023-06-24T11:04:15;5.00;;;2.80;;
69026;SDS011;56080;47.594;19.116;2023-06-24T11:14:15;5.90;;;3.00;;
69026;SDS011;56080;47.594;19.116;2023-06-24T11:24:18;5.50;;;3.00;;
69026;SDS011;56080;47.594;19.116;2023-06-24T11:34:20;5.30;;;2.60;;
69026;SDS011;56080;47.594;19.116;2023-06-24T11:44:23;5.40;;;2.70;;
69026;SDS011;56080;47.594;19.116;2023-06-24T11:54:25;5.10;;;2.60;;
69026;SDS011;56080;47.594;19.116;2023-06-24T12:04:28;4.80;;;2.50;;
69026;SDS011;56080;47.594;19.116;2023-06-24T12:14:29;5.20;;;2.50;;
69026;SDS011;56080;47.594;19.116;2023-06-24T12:24:31;6.10;;;2.90;;
69026;SDS011;56080;47.594;19.116;2023-06-24T12:34:34;5.10;;;2.70;;
69026;SDS011;56080;47.594;19.116;2023-06-24T12:44:37;5.40;;;2.70;;
69026;SDS011;56080;47.594;19.116;2023-06-24T12:54:38;6.10;;;2.80;;
69026;SDS011;56080;47.594;19.116;2023-06-24T13:04:40;5.40;;;2.70;;
69026;SDS011;56080;47.594;19.116;2023-06-24T13:14:43;4.90;;;2.50;;
69026;SDS011;56080;47.594;19.116;2023-06-24T13:24:45;5.60;;;2.60;;
69026;SDS011;56080;47.594;19.116;2023-06-24T13:34:47;5.40;;;3.10;;
69026;SDS011;56080;47.594;19.116;2023-06-24T13:44:49;6.80;;;3.40;;
69026;SDS011;56080;47.594;19.116;2023-06-24T13:54:52;6.10;;;3.60;;
69026;SDS011;56080;47.594;19.116;2023-06-24T14:04:54;6.00;;;3.90;;
69026;SDS011;56080;47.594;19.116;2023-06-24T14:14:56;6.40;;;3.90;;
69026;SDS011;56080;47.594;19.116;2023-06-24T14:24:58;7.20;;;3.90;;
69026;SDS011;56080;47.594;19.116;2023-06-24T14:35:00;6.10;;;4.40;;
69026;SDS011;56080;47.594;19.116;2023-06-24T14:45:03;7.80;;;4.50;;
69026;SDS011;56080;47.594;19.116;2023-06-24T14:55:05;6.70;;;4.30;;
69026;SDS011;56080;47.594;19.116;2023-06-24T15:05:07;7.70;;;4.70;;
69026;SDS011;56080;47.594;19.116;2023-06-24T15:15:09;6.70;;;4.70;;
69026;SDS011;56080;47.594;19.116;2023-06-24T15:25:11;8.00;;;5.10;;
69026;SDS011;56080;47.594;19.116;2023-06-24T15:35:13;6.50;;;4.50;;
69026;SDS011;56080;47.594;19.116;2023-06-24T15:45:15;7.60;;;5.20;;
69026;SDS011;56080;47.594;19.116;2023-06-24T15:55:18;7.70;;;5.30;;
69026;SDS011;56080;47.594;19.116;2023-06-24T16:05:19;7.80;;;5.10;;
69026;SDS011;56080;47.594;19.116;2023-06-24T16:15:22;6.40;;;4.50;;
69026;SDS011;56080;47.594;19.116;2023-06-24T16:25:23;7.50;;;4.90;;
69026;SDS011;56080;47.594;19.116;2023-06-24T16:35:26;7.00;;;5.10;;
69026;SDS011;56080;47.594;19.116;2023-06-24T16:45:29;8.10;;;5.50;;
69026;SDS011;56080;47.594;19.116;2023-06-24T16:55:29;8.00;;;4.80;;
69026;SDS011;56080;47.594;19.116;2023-06-24T17:05:31;8.90;;;5.70;;
69026;SDS011;56080;47.594;19.116;2023-06-24T17:25:36;7.20;;;4.60;;
69026;SDS011;56080;47.594;19.116;2023-06-24T17:35:38;7.30;;;4.70;;
69026;SDS011;56080;47.594;19.116;2023-06-24T17:45:42;7.80;;;5.00;;
69026;SDS011;56080;47.594;19.116;2023-06-24T17:55:42;9.70;;;5.90;;
69026;SDS011;56080;47.594;19.116;2023-06-24T18:05:44;9.00;;;5.90;;
69026;SDS011;56080;47.594;19.116;2023-06-24T18:15:46;8.00;;;5.60;;
69026;SDS011;56080;47.594;19.116;2023-06-24T18:25:48;9.10;;;5.90;;
69026;SDS011;56080;47.594;19.116;2023-06-24T18:35:50;9.50;;;6.60;;
69026;SDS011;56080;47.594;19.116;2023-06-24T18:45:52;8.30;;;5.70;;
69026;SDS011;56080;47.594;19.116;2023-06-24T18:55:53;9.20;;;6.30;;
69026;SDS011;56080;47.594;19.116;2023-06-24T19:05:55;8.60;;;6.00;;
69026;SDS011;56080;47.594;19.116;2023-06-24T19:15:57;9.10;;;6.00;;
69026;SDS011;56080;47.594;19.116;2023-06-24T19:25:59;9.40;;;6.00;;
69026;SDS011;56080;47.594;19.116;2023-06-24T19:36:01;8.80;;;5.80;;
69026;SDS011;56080;47.594;19.116;2023-06-24T19:46:02;10.40;;;5.80;;
69026;SDS011;56080;47.594;19.116;2023-06-24T19:56:04;9.20;;;5.90;;
69026;SDS011;56080;47.594;19.116;2023-06-24T20:06:06;8.80;;;5.60;;
69026;SDS011;56080;47.594;19.116;2023-06-24T20:16:08;8.90;;;5.80;;
69026;SDS011;56080;47.594;19.116;2023-06-24T20:26:10;8.20;;;5.50;;
69026;SDS011;56080;47.594;19.116;2023-06-24T20:36:11;8.90;;;5.70;;
69026;SDS011;56080;47.594;19.116;2023-06-24T20:46:13;8.40;;;5.40;;
69026;SDS011;56080;47.594;19.116;2023-06-24T20:56:15;9.30;;;5.90;;
69026;SDS011;56080;47.594;19.116;2023-06-24T21:06:16;8.70;;;5.60;;
69026;SDS011;56080;47.594;19.116;2023-06-24T21:16:18;8.30;;;5.10;;
69026;SDS011;56080;47.594;19.116;2023-06-24T21:26:20;9.40;;;6.50;;
69026;SDS011;56080;47.594;19.116;2023-06-24T21:36:23;9.70;;;5.90;;
69026;SDS011;56080;47.594;19.116;2023-06-24T21:46:23;8.80;;;5.40;;
69026;SDS011;56080;47.594;19.116;2023-06-24T21:56:25;8.50;;;5.60;;
69026;SDS011;56080;47.594;19.116;2023-06-24T22:06:26;8.00;;;5.30;;
69026;SDS011;56080;47.594;19.116;2023-06-24T22:16:28;7.70;;;5.00;;
69026;SDS011;56080;47.594;19.116;2023-06-24T22:26:30;7.40;;;4.80;;
69026;SDS011;56080;47.594;19.116;2023-06-24T22:36:32;8.70;;;5.00;;
69026;SDS011;56080;47.594;19.116;2023-06-24T22:46:33;7.40;;;4.80;;
69026;SDS011;56080;47.594;19.116;2023-06-24T22:56:35;8.70;;;5.60;;
69026;SDS011;56080;47.594;19.116;2023-06-24T23:06:37;8.10;;;5.00;;
69026;SDS011;56080;47.594;19.116;2023-06-24T23:16:39;7.70;;;4.50;;
69026;SDS011;56080;47.594;19.116;2023-06-24T23:26:49;6.70;;;3.80;;
69026;SDS011;56080;47.594;19.116;2023-06-24T23:36:44;6.60;;;3.60;;
69026;SDS011;56080;47.594;19.116;2023-06-24T23:46:44;9.80;;;5.90;;
69026;SDS011;56080;47.594;19.116;2023-06-24T23:56:45;10.30;;;5.90;;
